sensor_id;sensor_type;location;lat;lon;timestamp;P1;durP1;ratioP1;P2;durP2;ratioP2
3747;SDS011;1889;50.058;8.688;2023-04-25T00:00:22;5.15;;;4.40;;
3747;SDS011;1889;50.058;8.688;2023-04-25T00:02:52;5.55;;;4.53;;
3747;SDS011;1889;50.058;8.688;2023-04-25T00:05:23;5.03;;;4.62;;
3747;SDS011;1889;50.058;8.688;2023-04-25T00:07:52;4.75;;;4.28;;
3747;SDS011;1889;50.058;8.688;2023-04-25T00:10:22;4.37;;;3.90;;
3747;SDS011;1889;50.058;8.688;2023-04-25T00:12:51;4.45;;;4.05;;
3747;SDS011;1889;50.058;8.688;2023-04-25T00:15:20;4.12;;;3.72;;
3747;SDS011;1889;50.058;8.688;2023-04-25T00:17:50;3.87;;;3.45;;
3747;SDS011;1889;50.058;8.688;2023-04-25T00:20:20;3.90;;;3.50;;
3747;SDS011;1889;50.058;8.688;2023-04-25T00:22:50;4.70;;;3.67;;
3747;SDS011;1889;50.058;8.688;2023-04-25T00:25:21;4.00;;;3.65;;
3747;SDS011;1889;50.058;8.688;2023-04-25T00:27:51;4.10;;;3.70;;
3747;SDS011;1889;50.058;8.688;2023-04-25T00:30:20;3.92;;;3.62;;
3747;SDS011;1889;50.058;8.688;2023-04-25T00:32:49;3.90;;;3.30;;
3747;SDS011;1889;50.058;8.688;2023-04-25T00:35:18;5.17;;;3.33;;
3747;SDS011;1889;50.058;8.688;2023-04-25T00:37:48;4.03;;;3.62;;
3747;SDS011;1889;50.058;8.688;2023-04-25T00:40:17;3.95;;;3.65;;
3747;SDS011;1889;50.058;8.688;2023-04-25T00:42:47;5.12;;;3.45;;
3747;SDS011;1889;50.058;8.688;2023-04-25T00:45:17;5.05;;;3.17;;
3747;SDS011;1889;50.058;8.688;2023-04-25T00:47:47;3.92;;;3.62;;
3747;SDS011;1889;50.058;8.688;2023-04-25T00:50:16;4.12;;;3.58;;
3747;SDS011;1889;50.058;8.688;2023-04-25T00:52:46;3.55;;;3.25;;
3747;SDS011;1889;50.058;8.688;2023-04-25T00:55:15;4.08;;;3.67;;
3747;SDS011;1889;50.058;8.688;2023-04-25T00:57:44;5.00;;;3.75;;
3747;SDS011;1889;50.058;8.688;2023-04-25T01:00:14;3.45;;;3.15;;
3747;SDS011;1889;50.058;8.688;2023-04-25T01:02:44;3.85;;;3.47;;
3747;SDS011;1889;50.058;8.688;2023-04-25T01:05:14;4.30;;;3.42;;
3747;SDS011;1889;50.058;8.688;2023-04-25T01:07:45;3.77;;;2.83;;
3747;SDS011;1889;50.058;8.688;2023-04-25T01:10:14;3.67;;;3.17;;
3747;SDS011;1889;50.058;8.688;2023-04-25T01:12:44;4.53;;;4.05;;
3747;SDS011;1889;50.058;8.688;2023-04-25T01:15:13;6.15;;;3.70;;
3747;SDS011;1889;50.058;8.688;2023-04-25T01:17:42;3.95;;;3.58;;
3747;SDS011;1889;50.058;8.688;2023-04-25T01:20:12;4.15;;;3.58;;
3747;SDS011;1889;50.058;8.688;2023-04-25T01:22:43;5.08;;;3.83;;
3747;SDS011;1889;50.058;8.688;2023-04-25T01:25:13;3.87;;;3.58;;
3747;SDS011;1889;50.058;8.688;2023-04-25T01:27:43;4.92;;;3.72;;
3747;SDS011;1889;50.058;8.688;2023-04-25T01:30:13;6.15;;;3.67;;
3747;SDS011;1889;50.058;8.688;2023-04-25T01:32:43;4.00;;;3.60;;
3747;SDS011;1889;50.058;8.688;2023-04-25T01:35:12;6.17;;;3.77;;
3747;SDS011;1889;50.058;8.688;2023-04-25T01:37:42;4.75;;;3.42;;
3747;SDS011;1889;50.058;8.688;2023-04-25T01:40:12;4.62;;;4.00;;
3747;SDS011;1889;50.058;8.688;2023-04-25T01:42:42;4.12;;;3.75;;
3747;SDS011;1889;50.058;8.688;2023-04-25T01:45:13;4.70;;;4.08;;
3747;SDS011;1889;50.058;8.688;2023-04-25T01:47:42;4.47;;;3.77;;
3747;SDS011;1889;50.058;8.688;2023-04-25T01:50:14;5.00;;;4.42;;
3747;SDS011;1889;50.058;8.688;2023-04-25T01:52:46;4.08;;;3.70;;
3747;SDS011;1889;50.058;8.688;2023-04-25T01:55:15;4.15;;;3.85;;
3747;SDS011;1889;50.058;8.688;2023-04-25T01:57:44;5.05;;;4.00;;
3747;SDS011;1889;50.058;8.688;2023-04-25T02:00:14;4.72;;;4.33;;
3747;SDS011;1889;50.058;8.688;2023-04-25T02:02:43;6.05;;;4.58;;
3747;SDS011;1889;50.058;8.688;2023-04-25T02:05:12;4.58;;;4.00;;
3747;SDS011;1889;50.058;8.688;2023-04-25T02:07:42;5.03;;;4.53;;
3747;SDS011;1889;50.058;8.688;2023-04-25T02:10:11;4.35;;;3.95;;
3747;SDS011;1889;50.058;8.688;2023-04-25T02:12:40;4.83;;;4.35;;
3747;SDS011;1889;50.058;8.688;2023-04-25T02:15:10;5.47;;;4.55;;
3747;SDS011;1889;50.058;8.688;2023-04-25T02:17:39;5.72;;;5.12;;
3747;SDS011;1889;50.058;8.688;2023-04-25T02:20:09;5.20;;;4.70;;
3747;SDS011;1889;50.058;8.688;2023-04-25T02:22:39;4.85;;;4.45;;
3747;SDS011;1889;50.058;8.688;2023-04-25T02:25:11;5.22;;;4.72;;
3747;SDS011;1889;50.058;8.688;2023-04-25T02:27:41;4.72;;;4.33;;
3747;SDS011;1889;50.058;8.688;2023-04-25T02:30:11;5.67;;;5.03;;
3747;SDS011;1889;50.058;8.688;2023-04-25T02:32:40;6.92;;;4.70;;
3747;SDS011;1889;50.058;8.688;2023-04-25T02:35:10;6.15;;;5.30;;
3747;SDS011;1889;50.058;8.688;2023-04-25T02:37:39;5.65;;;5.05;;
3747;SDS011;1889;50.058;8.688;2023-04-25T02:40:09;6.62;;;4.35;;
3747;SDS011;1889;50.058;8.688;2023-04-25T02:42:38;5.83;;;4.65;;
3747;SDS011;1889;50.058;8.688;2023-04-25T02:45:08;5.83;;;5.22;;
3747;SDS011;1889;50.058;8.688;2023-04-25T02:47:38;5.80;;;4.67;;
3747;SDS011;1889;50.058;8.688;2023-04-25T02:50:07;6.35;;;5.15;;
3747;SDS011;1889;50.058;8.688;2023-04-25T02:52:36;6.37;;;4.97;;
3747;SDS011;1889;50.058;8.688;2023-04-25T02:55:06;6.55;;;5.45;;
3747;SDS011;1889;50.058;8.688;2023-04-25T02:57:35;5.97;;;5.35;;
3747;SDS011;1889;50.058;8.688;2023-04-25T03:00:05;5.85;;;5.35;;
3747;SDS011;1889;50.058;8.688;2023-04-25T03:02:35;6.50;;;5.67;;
3747;SDS011;1889;50.058;8.688;2023-04-25T03:05:04;8.10;;;5.78;;
3747;SDS011;1889;50.058;8.688;2023-04-25T03:07:34;7.20;;;5.90;;
3747;SDS011;1889;50.058;8.688;2023-04-25T03:10:04;6.70;;;5.78;;
3747;SDS011;1889;50.058;8.688;2023-04-25T03:12:34;7.50;;;5.65;;
3747;SDS011;1889;50.058;8.688;2023-04-25T03:15:05;6.85;;;5.75;;
3747;SDS011;1889;50.058;8.688;2023-04-25T03:17:35;6.20;;;5.60;;
3747;SDS011;1889;50.058;8.688;2023-04-25T03:20:04;7.28;;;5.83;;
3747;SDS011;1889;50.058;8.688;2023-04-25T03:22:35;6.22;;;5.50;;
3747;SDS011;1889;50.058;8.688;2023-04-25T03:25:05;6.60;;;5.72;;
3747;SDS011;1889;50.058;8.688;2023-04-25T03:27:35;9.00;;;5.78;;
3747;SDS011;1889;50.058;8.688;2023-04-25T03:30:04;6.33;;;5.72;;
3747;SDS011;1889;50.058;8.688;2023-04-25T03:32:35;6.85;;;5.22;;
3747;SDS011;1889;50.058;8.688;2023-04-25T03:35:04;6.90;;;5.70;;
3747;SDS011;1889;50.058;8.688;2023-04-25T03:37:34;7.37;;;6.25;;
3747;SDS011;1889;50.058;8.688;2023-04-25T03:40:03;5.05;;;4.55;;
3747;SDS011;1889;50.058;8.688;2023-04-25T03:42:33;8.30;;;5.08;;
3747;SDS011;1889;50.058;8.688;2023-04-25T03:45:02;5.85;;;5.00;;
3747;SDS011;1889;50.058;8.688;2023-04-25T03:47:34;7.12;;;5.35;;
3747;SDS011;1889;50.058;8.688;2023-04-25T03:50:03;8.70;;;5.62;;
3747;SDS011;1889;50.058;8.688;2023-04-25T03:52:33;6.12;;;4.85;;
3747;SDS011;1889;50.058;8.688;2023-04-25T03:55:03;9.23;;;4.92;;
3747;SDS011;1889;50.058;8.688;2023-04-25T03:57:34;5.37;;;4.60;;
3747;SDS011;1889;50.058;8.688;2023-04-25T04:00:03;7.10;;;4.92;;
3747;SDS011;1889;50.058;8.688;2023-04-25T04:02:34;7.53;;;5.15;;
3747;SDS011;1889;50.058;8.688;2023-04-25T04:05:04;7.03;;;5.40;;
3747;SDS011;1889;50.058;8.688;2023-04-25T04:07:34;5.30;;;4.33;;
3747;SDS011;1889;50.058;8.688;2023-04-25T04:10:06;6.10;;;4.65;;
3747;SDS011;1889;50.058;8.688;2023-04-25T04:12:36;7.55;;;5.03;;
3747;SDS011;1889;50.058;8.688;2023-04-25T04:15:05;7.47;;;5.25;;
3747;SDS011;1889;50.058;8.688;2023-04-25T04:17:35;5.97;;;4.83;;
3747;SDS011;1889;50.058;8.688;2023-04-25T04:20:05;6.95;;;4.90;;
3747;SDS011;1889;50.058;8.688;2023-04-25T04:22:35;6.87;;;4.80;;
3747;SDS011;1889;50.058;8.688;2023-04-25T04:25:05;9.15;;;5.25;;
3747;SDS011;1889;50.058;8.688;2023-04-25T04:27:34;6.72;;;4.85;;
3747;SDS011;1889;50.058;8.688;2023-04-25T04:30:04;8.78;;;5.10;;
3747;SDS011;1889;50.058;8.688;2023-04-25T04:32:34;10.72;;;6.00;;
3747;SDS011;1889;50.058;8.688;2023-04-25T04:35:04;6.83;;;5.55;;
3747;SDS011;1889;50.058;8.688;2023-04-25T04:37:33;8.85;;;5.40;;
3747;SDS011;1889;50.058;8.688;2023-04-25T04:40:04;8.03;;;6.05;;
3747;SDS011;1889;50.058;8.688;2023-04-25T04:42:34;11.03;;;6.40;;
3747;SDS011;1889;50.058;8.688;2023-04-25T04:45:03;9.35;;;6.03;;
3747;SDS011;1889;50.058;8.688;2023-04-25T04:47:33;8.75;;;5.35;;
3747;SDS011;1889;50.058;8.688;2023-04-25T04:50:04;8.53;;;6.05;;
3747;SDS011;1889;50.058;8.688;2023-04-25T04:52:36;8.85;;;5.80;;
3747;SDS011;1889;50.058;8.688;2023-04-25T04:55:06;7.45;;;6.37;;
3747;SDS011;1889;50.058;8.688;2023-04-25T04:57:36;9.88;;;5.78;;
3747;SDS011;1889;50.058;8.688;2023-04-25T05:00:06;10.98;;;6.17;;
3747;SDS011;1889;50.058;8.688;2023-04-25T05:02:37;8.68;;;6.00;;
3747;SDS011;1889;50.058;8.688;2023-04-25T05:05:07;7.78;;;6.60;;
3747;SDS011;1889;50.058;8.688;2023-04-25T05:07:37;13.95;;;7.03;;
3747;SDS011;1889;50.058;8.688;2023-04-25T05:10:07;10.35;;;6.30;;
3747;SDS011;1889;50.058;8.688;2023-04-25T05:12:36;10.25;;;6.62;;
3747;SDS011;1889;50.058;8.688;2023-04-25T05:15:06;10.70;;;7.20;;
3747;SDS011;1889;50.058;8.688;2023-04-25T05:17:36;8.90;;;6.17;;
3747;SDS011;1889;50.058;8.688;2023-04-25T05:20:06;10.98;;;5.60;;
3747;SDS011;1889;50.058;8.688;2023-04-25T05:22:37;8.20;;;5.60;;
3747;SDS011;1889;50.058;8.688;2023-04-25T05:25:08;9.75;;;6.17;;
3747;SDS011;1889;50.058;8.688;2023-04-25T05:27:38;11.73;;;6.17;;
3747;SDS011;1889;50.058;8.688;2023-04-25T05:30:07;10.30;;;5.58;;
3747;SDS011;1889;50.058;8.688;2023-04-25T05:32:37;8.50;;;5.17;;
3747;SDS011;1889;50.058;8.688;2023-04-25T05:35:08;9.75;;;5.62;;
3747;SDS011;1889;50.058;8.688;2023-04-25T05:37:37;9.40;;;5.53;;
3747;SDS011;1889;50.058;8.688;2023-04-25T05:40:06;12.63;;;6.22;;
3747;SDS011;1889;50.058;8.688;2023-04-25T05:42:37;8.20;;;5.53;;
3747;SDS011;1889;50.058;8.688;2023-04-25T05:45:06;9.60;;;5.58;;
3747;SDS011;1889;50.058;8.688;2023-04-25T05:47:36;7.58;;;5.22;;
3747;SDS011;1889;50.058;8.688;2023-04-25T05:50:05;9.38;;;5.85;;
3747;SDS011;1889;50.058;8.688;2023-04-25T05:52:36;10.08;;;5.50;;
3747;SDS011;1889;50.058;8.688;2023-04-25T05:55:06;8.18;;;5.42;;
3747;SDS011;1889;50.058;8.688;2023-04-25T05:57:36;9.63;;;5.70;;
3747;SDS011;1889;50.058;8.688;2023-04-25T06:00:07;7.42;;;5.08;;
3747;SDS011;1889;50.058;8.688;2023-04-25T06:02:37;8.05;;;5.58;;
3747;SDS011;1889;50.058;8.688;2023-04-25T06:05:06;10.63;;;6.28;;
3747;SDS011;1889;50.058;8.688;2023-04-25T06:07:37;7.80;;;6.97;;
3747;SDS011;1889;50.058;8.688;2023-04-25T06:10:06;10.80;;;5.72;;
3747;SDS011;1889;50.058;8.688;2023-04-25T06:12:36;10.30;;;5.30;;
3747;SDS011;1889;50.058;8.688;2023-04-25T06:15:06;7.15;;;4.95;;
3747;SDS011;1889;50.058;8.688;2023-04-25T06:17:35;6.22;;;4.87;;
3747;SDS011;1889;50.058;8.688;2023-04-25T06:20:05;9.23;;;5.15;;
3747;SDS011;1889;50.058;8.688;2023-04-25T06:22:55;7.58;;;5.00;;
3747;SDS011;1889;50.058;8.688;2023-04-25T06:25:25;9.90;;;5.47;;
3747;SDS011;1889;50.058;8.688;2023-04-25T06:27:54;8.70;;;5.00;;
3747;SDS011;1889;50.058;8.688;2023-04-25T06:30:23;10.20;;;6.12;;
3747;SDS011;1889;50.058;8.688;2023-04-25T06:32:53;10.88;;;5.30;;
3747;SDS011;1889;50.058;8.688;2023-04-25T06:35:22;6.35;;;5.22;;
3747;SDS011;1889;50.058;8.688;2023-04-25T06:37:52;8.05;;;5.20;;
3747;SDS011;1889;50.058;8.688;2023-04-25T06:40:21;14.70;;;5.95;;
3747;SDS011;1889;50.058;8.688;2023-04-25T06:42:51;7.62;;;5.47;;
3747;SDS011;1889;50.058;8.688;2023-04-25T06:45:20;9.18;;;5.67;;
3747;SDS011;1889;50.058;8.688;2023-04-25T06:47:49;9.63;;;5.60;;
3747;SDS011;1889;50.058;8.688;2023-04-25T06:50:18;9.95;;;5.53;;
3747;SDS011;1889;50.058;8.688;2023-04-25T06:52:48;11.18;;;6.03;;
3747;SDS011;1889;50.058;8.688;2023-04-25T06:55:17;8.60;;;6.40;;
3747;SDS011;1889;50.058;8.688;2023-04-25T06:57:47;12.07;;;5.83;;
3747;SDS011;1889;50.058;8.688;2023-04-25T07:00:16;8.70;;;6.00;;
3747;SDS011;1889;50.058;8.688;2023-04-25T07:02:46;9.18;;;6.12;;
3747;SDS011;1889;50.058;8.688;2023-04-25T07:05:15;10.93;;;6.15;;
3747;SDS011;1889;50.058;8.688;2023-04-25T07:07:45;6.00;;;5.10;;
3747;SDS011;1889;50.058;8.688;2023-04-25T07:10:14;7.28;;;5.05;;
3747;SDS011;1889;50.058;8.688;2023-04-25T07:12:44;8.23;;;5.03;;
3747;SDS011;1889;50.058;8.688;2023-04-25T07:15:13;9.55;;;5.67;;
3747;SDS011;1889;50.058;8.688;2023-04-25T07:17:42;8.85;;;4.80;;
3747;SDS011;1889;50.058;8.688;2023-04-25T07:20:11;8.08;;;4.50;;
3747;SDS011;1889;50.058;8.688;2023-04-25T07:22:41;8.30;;;4.78;;
3747;SDS011;1889;50.058;8.688;2023-04-25T07:25:11;7.30;;;4.08;;
3747;SDS011;1889;50.058;8.688;2023-04-25T07:27:40;6.28;;;3.95;;
3747;SDS011;1889;50.058;8.688;2023-04-25T07:30:10;5.67;;;4.45;;
3747;SDS011;1889;50.058;8.688;2023-04-25T07:32:39;7.47;;;3.80;;
3747;SDS011;1889;50.058;8.688;2023-04-25T07:35:09;5.97;;;3.95;;
3747;SDS011;1889;50.058;8.688;2023-04-25T07:37:38;6.67;;;3.90;;
3747;SDS011;1889;50.058;8.688;2023-04-25T07:40:07;8.48;;;4.25;;
3747;SDS011;1889;50.058;8.688;2023-04-25T07:42:37;5.58;;;3.40;;
3747;SDS011;1889;50.058;8.688;2023-04-25T07:45:07;8.05;;;3.87;;
3747;SDS011;1889;50.058;8.688;2023-04-25T07:47:37;6.22;;;3.40;;
3747;SDS011;1889;50.058;8.688;2023-04-25T07:50:06;7.10;;;3.67;;
3747;SDS011;1889;50.058;8.688;2023-04-25T07:52:37;5.28;;;3.00;;
3747;SDS011;1889;50.058;8.688;2023-04-25T07:55:06;5.05;;;3.30;;
3747;SDS011;1889;50.058;8.688;2023-04-25T07:57:36;7.95;;;3.20;;
3747;SDS011;1889;50.058;8.688;2023-04-25T08:00:06;5.65;;;3.37;;
3747;SDS011;1889;50.058;8.688;2023-04-25T08:02:38;6.10;;;3.25;;
3747;SDS011;1889;50.058;8.688;2023-04-25T08:05:08;8.83;;;3.55;;
3747;SDS011;1889;50.058;8.688;2023-04-25T08:07:39;6.97;;;3.52;;
3747;SDS011;1889;50.058;8.688;2023-04-25T08:10:09;8.00;;;3.58;;
3747;SDS011;1889;50.058;8.688;2023-04-25T08:12:38;5.17;;;3.62;;
3747;SDS011;1889;50.058;8.688;2023-04-25T08:15:08;8.78;;;4.03;;
3747;SDS011;1889;50.058;8.688;2023-04-25T08:17:38;5.83;;;4.00;;
3747;SDS011;1889;50.058;8.688;2023-04-25T08:20:08;6.12;;;3.33;;
3747;SDS011;1889;50.058;8.688;2023-04-25T08:22:38;5.70;;;3.72;;
3747;SDS011;1889;50.058;8.688;2023-04-25T08:25:07;6.08;;;3.67;;
3747;SDS011;1889;50.058;8.688;2023-04-25T08:27:37;3.10;;;2.58;;
3747;SDS011;1889;50.058;8.688;2023-04-25T08:30:06;4.90;;;2.98;;
3747;SDS011;1889;50.058;8.688;2023-04-25T08:32:36;4.33;;;3.65;;
3747;SDS011;1889;50.058;8.688;2023-04-25T08:35:08;5.00;;;2.87;;
3747;SDS011;1889;50.058;8.688;2023-04-25T08:37:38;4.28;;;3.15;;
3747;SDS011;1889;50.058;8.688;2023-04-25T08:40:08;4.33;;;3.00;;
3747;SDS011;1889;50.058;8.688;2023-04-25T08:42:41;4.17;;;2.80;;
3747;SDS011;1889;50.058;8.688;2023-04-25T08:45:10;9.70;;;3.65;;
3747;SDS011;1889;50.058;8.688;2023-04-25T08:47:40;5.75;;;3.08;;
3747;SDS011;1889;50.058;8.688;2023-04-25T08:50:12;5.78;;;3.10;;
3747;SDS011;1889;50.058;8.688;2023-04-25T08:52:46;3.50;;;2.50;;
3747;SDS011;1889;50.058;8.688;2023-04-25T08:55:16;3.67;;;3.05;;
3747;SDS011;1889;50.058;8.688;2023-04-25T08:57:46;3.15;;;2.58;;
3747;SDS011;1889;50.058;8.688;2023-04-25T09:00:16;2.95;;;2.65;;
3747;SDS011;1889;50.058;8.688;2023-04-25T09:02:47;7.17;;;2.90;;
3747;SDS011;1889;50.058;8.688;2023-04-25T09:05:16;2.80;;;2.42;;
3747;SDS011;1889;50.058;8.688;2023-04-25T09:07:46;6.00;;;2.80;;
3747;SDS011;1889;50.058;8.688;2023-04-25T09:10:16;2.87;;;2.27;;
3747;SDS011;1889;50.058;8.688;2023-04-25T09:13:01;3.52;;;2.80;;
3747;SDS011;1889;50.058;8.688;2023-04-25T09:15:49;3.42;;;3.00;;
3747;SDS011;1889;50.058;8.688;2023-04-25T09:18:24;4.40;;;2.40;;
3747;SDS011;1889;50.058;8.688;2023-04-25T09:20:56;4.75;;;2.27;;
3747;SDS011;1889;50.058;8.688;2023-04-25T09:23:40;3.87;;;2.80;;
3747;SDS011;1889;50.058;8.688;2023-04-25T09:26:10;4.33;;;2.90;;
3747;SDS011;1889;50.058;8.688;2023-04-25T09:28:45;3.95;;;2.65;;
3747;SDS011;1889;50.058;8.688;2023-04-25T09:31:26;4.35;;;3.08;;
3747;SDS011;1889;50.058;8.688;2023-04-25T09:33:58;3.15;;;2.55;;
3747;SDS011;1889;50.058;8.688;2023-04-25T09:36:29;3.83;;;2.70;;
3747;SDS011;1889;50.058;8.688;2023-04-25T09:38:59;4.58;;;2.98;;
3747;SDS011;1889;50.058;8.688;2023-04-25T09:41:28;4.25;;;2.72;;
3747;SDS011;1889;50.058;8.688;2023-04-25T09:43:58;3.12;;;2.47;;
3747;SDS011;1889;50.058;8.688;2023-04-25T09:46:32;6.00;;;2.70;;
3747;SDS011;1889;50.058;8.688;2023-04-25T09:49:07;5.78;;;2.58;;
3747;SDS011;1889;50.058;8.688;2023-04-25T09:51:36;3.87;;;2.50;;
3747;SDS011;1889;50.058;8.688;2023-04-25T09:54:06;6.15;;;2.90;;
3747;SDS011;1889;50.058;8.688;2023-04-25T09:56:35;4.65;;;3.37;;
3747;SDS011;1889;50.058;8.688;2023-04-25T09:59:05;5.50;;;3.70;;
3747;SDS011;1889;50.058;8.688;2023-04-25T10:01:37;3.65;;;2.90;;
3747;SDS011;1889;50.058;8.688;2023-04-25T10:04:11;5.50;;;3.20;;
3747;SDS011;1889;50.058;8.688;2023-04-25T10:06:42;4.37;;;3.47;;
3747;SDS011;1889;50.058;8.688;2023-04-25T10:09:12;4.60;;;3.62;;
3747;SDS011;1889;50.058;8.688;2023-04-25T10:11:43;3.87;;;3.22;;
3747;SDS011;1889;50.058;8.688;2023-04-25T10:14:16;5.00;;;2.87;;
3747;SDS011;1889;50.058;8.688;2023-04-25T10:16:46;5.47;;;3.10;;
3747;SDS011;1889;50.058;8.688;2023-04-25T10:19:16;3.98;;;3.22;;
3747;SDS011;1889;50.058;8.688;2023-04-25T10:22:07;4.67;;;3.00;;
3747;SDS011;1889;50.058;8.688;2023-04-25T10:24:41;6.15;;;2.85;;
3747;SDS011;1889;50.058;8.688;2023-04-25T10:27:11;3.98;;;3.02;;
3747;SDS011;1889;50.058;8.688;2023-04-25T10:29:41;3.95;;;3.58;;
3747;SDS011;1889;50.058;8.688;2023-04-25T10:32:13;5.12;;;2.77;;
3747;SDS011;1889;50.058;8.688;2023-04-25T10:34:43;4.47;;;3.33;;
3747;SDS011;1889;50.058;8.688;2023-04-25T10:37:14;5.25;;;3.30;;
3747;SDS011;1889;50.058;8.688;2023-04-25T10:39:43;4.17;;;3.10;;
3747;SDS011;1889;50.058;8.688;2023-04-25T10:42:14;5.08;;;3.20;;
3747;SDS011;1889;50.058;8.688;2023-04-25T10:44:47;3.75;;;2.70;;
3747;SDS011;1889;50.058;8.688;2023-04-25T10:47:15;4.47;;;3.52;;
3747;SDS011;1889;50.058;8.688;2023-04-25T10:49:48;4.65;;;3.10;;
3747;SDS011;1889;50.058;8.688;2023-04-25T10:54:52;3.47;;;2.98;;
3747;SDS011;1889;50.058;8.688;2023-04-25T10:57:26;4.12;;;3.10;;
3747;SDS011;1889;50.058;8.688;2023-04-25T10:59:59;5.33;;;3.75;;
3747;SDS011;1889;50.058;8.688;2023-04-25T11:02:52;4.00;;;3.30;;
3747;SDS011;1889;50.058;8.688;2023-04-25T11:08:01;5.80;;;3.50;;
3747;SDS011;1889;50.058;8.688;2023-04-25T11:10:33;6.35;;;3.75;;
3747;SDS011;1889;50.058;8.688;2023-04-25T11:13:05;6.05;;;3.70;;
3747;SDS011;1889;50.058;8.688;2023-04-25T11:15:34;5.95;;;4.03;;
3747;SDS011;1889;50.058;8.688;2023-04-25T11:18:05;4.92;;;3.47;;
3747;SDS011;1889;50.058;8.688;2023-04-25T11:20:34;4.97;;;3.75;;
3747;SDS011;1889;50.058;8.688;2023-04-25T11:23:04;4.33;;;3.27;;
3747;SDS011;1889;50.058;8.688;2023-04-25T11:25:33;5.30;;;3.00;;
3747;SDS011;1889;50.058;8.688;2023-04-25T11:28:02;4.70;;;3.40;;
3747;SDS011;1889;50.058;8.688;2023-04-25T11:30:32;4.70;;;3.20;;
3747;SDS011;1889;50.058;8.688;2023-04-25T11:33:02;4.80;;;2.70;;
3747;SDS011;1889;50.058;8.688;2023-04-25T11:35:31;4.62;;;3.35;;
3747;SDS011;1889;50.058;8.688;2023-04-25T11:38:01;5.42;;;3.05;;
3747;SDS011;1889;50.058;8.688;2023-04-25T11:40:30;5.97;;;3.42;;
3747;SDS011;1889;50.058;8.688;2023-04-25T11:43:00;3.95;;;2.90;;
3747;SDS011;1889;50.058;8.688;2023-04-25T11:45:29;4.35;;;2.80;;
3747;SDS011;1889;50.058;8.688;2023-04-25T11:47:59;3.17;;;2.62;;
3747;SDS011;1889;50.058;8.688;2023-04-25T11:50:31;4.95;;;2.72;;
3747;SDS011;1889;50.058;8.688;2023-04-25T11:53:00;3.27;;;2.50;;
3747;SDS011;1889;50.058;8.688;2023-04-25T11:55:29;6.75;;;4.17;;
3747;SDS011;1889;50.058;8.688;2023-04-25T11:57:59;7.65;;;3.27;;
3747;SDS011;1889;50.058;8.688;2023-04-25T12:00:29;6.75;;;2.85;;
3747;SDS011;1889;50.058;8.688;2023-04-25T12:02:59;3.60;;;2.92;;
3747;SDS011;1889;50.058;8.688;2023-04-25T12:05:30;6.00;;;2.80;;
3747;SDS011;1889;50.058;8.688;2023-04-25T12:08:10;7.00;;;3.55;;
3747;SDS011;1889;50.058;8.688;2023-04-25T12:10:42;3.47;;;2.55;;
3747;SDS011;1889;50.058;8.688;2023-04-25T12:13:20;4.90;;;2.80;;
3747;SDS011;1889;50.058;8.688;2023-04-25T12:15:51;5.03;;;3.08;;
3747;SDS011;1889;50.058;8.688;2023-04-25T12:18:23;11.70;;;3.47;;
3747;SDS011;1889;50.058;8.688;2023-04-25T12:20:54;4.25;;;2.70;;
3747;SDS011;1889;50.058;8.688;2023-04-25T12:23:27;5.25;;;3.10;;
3747;SDS011;1889;50.058;8.688;2023-04-25T12:25:57;3.80;;;2.50;;
3747;SDS011;1889;50.058;8.688;2023-04-25T12:28:28;3.45;;;2.50;;
3747;SDS011;1889;50.058;8.688;2023-04-25T12:31:01;4.47;;;2.98;;
3747;SDS011;1889;50.058;8.688;2023-04-25T12:33:35;6.15;;;2.83;;
3747;SDS011;1889;50.058;8.688;2023-04-25T12:36:06;5.33;;;2.98;;
3747;SDS011;1889;50.058;8.688;2023-04-25T12:38:41;4.53;;;2.70;;
3747;SDS011;1889;50.058;8.688;2023-04-25T12:41:10;5.35;;;2.92;;
3747;SDS011;1889;50.058;8.688;2023-04-25T12:43:39;3.75;;;2.33;;
3747;SDS011;1889;50.058;8.688;2023-04-25T12:46:09;3.05;;;2.75;;
3747;SDS011;1889;50.058;8.688;2023-04-25T12:48:38;5.05;;;2.80;;
3747;SDS011;1889;50.058;8.688;2023-04-25T12:51:08;3.35;;;2.08;;
3747;SDS011;1889;50.058;8.688;2023-04-25T12:53:37;4.20;;;2.60;;
3747;SDS011;1889;50.058;8.688;2023-04-25T12:56:08;3.27;;;2.98;;
3747;SDS011;1889;50.058;8.688;2023-04-25T12:58:37;6.03;;;2.90;;
3747;SDS011;1889;50.058;8.688;2023-04-25T13:01:07;3.87;;;2.47;;
3747;SDS011;1889;50.058;8.688;2023-04-25T13:03:37;7.05;;;3.47;;
3747;SDS011;1889;50.058;8.688;2023-04-25T13:06:06;8.85;;;3.25;;
3747;SDS011;1889;50.058;8.688;2023-04-25T13:08:36;9.38;;;3.62;;
3747;SDS011;1889;50.058;8.688;2023-04-25T13:11:05;4.75;;;2.52;;
3747;SDS011;1889;50.058;8.688;2023-04-25T13:13:35;7.62;;;3.40;;
3747;SDS011;1889;50.058;8.688;2023-04-25T13:16:04;7.20;;;2.85;;
3747;SDS011;1889;50.058;8.688;2023-04-25T13:18:34;6.72;;;4.05;;
3747;SDS011;1889;50.058;8.688;2023-04-25T13:21:04;5.97;;;2.95;;
3747;SDS011;1889;50.058;8.688;2023-04-25T13:23:34;3.98;;;2.83;;
3747;SDS011;1889;50.058;8.688;2023-04-25T13:26:03;4.53;;;2.70;;
3747;SDS011;1889;50.058;8.688;2023-04-25T13:28:32;4.53;;;2.65;;
3747;SDS011;1889;50.058;8.688;2023-04-25T13:31:02;4.17;;;2.80;;
3747;SDS011;1889;50.058;8.688;2023-04-25T13:33:31;4.50;;;2.70;;
3747;SDS011;1889;50.058;8.688;2023-04-25T13:36:01;3.65;;;3.30;;
3747;SDS011;1889;50.058;8.688;2023-04-25T13:38:30;3.87;;;2.85;;
3747;SDS011;1889;50.058;8.688;2023-04-25T13:40:59;5.55;;;2.80;;
3747;SDS011;1889;50.058;8.688;2023-04-25T13:43:29;3.87;;;2.77;;
3747;SDS011;1889;50.058;8.688;2023-04-25T13:46:01;6.17;;;2.60;;
3747;SDS011;1889;50.058;8.688;2023-04-25T13:48:30;7.30;;;3.25;;
3747;SDS011;1889;50.058;8.688;2023-04-25T13:51:00;5.33;;;2.92;;
3747;SDS011;1889;50.058;8.688;2023-04-25T13:53:29;4.55;;;2.92;;
3747;SDS011;1889;50.058;8.688;2023-04-25T13:55:59;6.92;;;2.45;;
3747;SDS011;1889;50.058;8.688;2023-04-25T13:58:28;3.55;;;2.77;;
3747;SDS011;1889;50.058;8.688;2023-04-25T14:00:57;5.55;;;3.00;;
3747;SDS011;1889;50.058;8.688;2023-04-25T14:03:27;5.28;;;2.72;;
3747;SDS011;1889;50.058;8.688;2023-04-25T14:05:56;5.92;;;3.12;;
3747;SDS011;1889;50.058;8.688;2023-04-25T14:08:25;7.15;;;2.90;;
3747;SDS011;1889;50.058;8.688;2023-04-25T14:10:55;6.97;;;2.67;;
3747;SDS011;1889;50.058;8.688;2023-04-25T14:13:25;8.13;;;3.20;;
3747;SDS011;1889;50.058;8.688;2023-04-25T14:15:54;4.72;;;3.10;;
3747;SDS011;1889;50.058;8.688;2023-04-25T14:18:24;7.75;;;3.40;;
3747;SDS011;1889;50.058;8.688;2023-04-25T14:20:53;5.45;;;2.50;;
3747;SDS011;1889;50.058;8.688;2023-04-25T14:23:22;3.10;;;2.62;;
3747;SDS011;1889;50.058;8.688;2023-04-25T14:25:52;4.08;;;2.75;;
3747;SDS011;1889;50.058;8.688;2023-04-25T14:28:21;5.53;;;3.55;;
3747;SDS011;1889;50.058;8.688;2023-04-25T14:30:50;3.40;;;2.25;;
3747;SDS011;1889;50.058;8.688;2023-04-25T14:33:20;6.03;;;2.90;;
3747;SDS011;1889;50.058;8.688;2023-04-25T14:35:49;4.62;;;1.92;;
3747;SDS011;1889;50.058;8.688;2023-04-25T14:38:18;3.75;;;2.20;;
3747;SDS011;1889;50.058;8.688;2023-04-25T14:40:49;5.25;;;2.25;;
3747;SDS011;1889;50.058;8.688;2023-04-25T14:43:19;3.15;;;1.87;;
3747;SDS011;1889;50.058;8.688;2023-04-25T14:45:48;4.20;;;2.05;;
3747;SDS011;1889;50.058;8.688;2023-04-25T14:48:18;4.08;;;2.37;;
3747;SDS011;1889;50.058;8.688;2023-04-25T14:50:47;3.67;;;1.95;;
3747;SDS011;1889;50.058;8.688;2023-04-25T14:53:17;4.62;;;2.75;;
3747;SDS011;1889;50.058;8.688;2023-04-25T14:55:47;6.30;;;2.40;;
3747;SDS011;1889;50.058;8.688;2023-04-25T14:58:16;4.25;;;2.27;;
3747;SDS011;1889;50.058;8.688;2023-04-25T15:00:45;4.25;;;1.95;;
3747;SDS011;1889;50.058;8.688;2023-04-25T15:03:15;4.28;;;2.12;;
3747;SDS011;1889;50.058;8.688;2023-04-25T15:05:45;4.00;;;2.20;;
3747;SDS011;1889;50.058;8.688;2023-04-25T15:08:14;4.58;;;1.95;;
3747;SDS011;1889;50.058;8.688;2023-04-25T15:10:44;3.12;;;1.85;;
3747;SDS011;1889;50.058;8.688;2023-04-25T15:13:14;6.35;;;2.92;;
3747;SDS011;1889;50.058;8.688;2023-04-25T15:15:43;6.08;;;3.55;;
3747;SDS011;1889;50.058;8.688;2023-04-25T15:18:14;4.87;;;2.30;;
3747;SDS011;1889;50.058;8.688;2023-04-25T15:20:44;6.55;;;3.30;;
3747;SDS011;1889;50.058;8.688;2023-04-25T15:23:13;6.33;;;2.42;;
3747;SDS011;1889;50.058;8.688;2023-04-25T15:25:43;6.97;;;3.62;;
3747;SDS011;1889;50.058;8.688;2023-04-25T15:28:13;4.50;;;2.37;;
3747;SDS011;1889;50.058;8.688;2023-04-25T15:30:43;5.17;;;1.82;;
3747;SDS011;1889;50.058;8.688;2023-04-25T15:33:12;5.12;;;2.02;;
3747;SDS011;1889;50.058;8.688;2023-04-25T15:35:42;4.92;;;1.90;;
3747;SDS011;1889;50.058;8.688;2023-04-25T15:38:12;5.05;;;2.05;;